Hoisington, KS (67544)

5:25 AM CDT on July 31, 2015 (GMT -0500)
Edgepark Addition | | Change Station
CLOSE
Current Station
Personal Weather Station
Location: Great Bend, KS
Elevation: 1880 ft
Nearby Weather Stations

Elev 1880 ft 38.38 °N, 98.77 °W | Updated 7 seconds ago

Clear
Clear
68.4 °F
Feels Like 68.4 °F
N
0.0
Wind Variable Wind from SSE
Gusts 0.0 mph

Today
High -- | Low -- °F
--% Chance of Precip.
Yesterday
High -- | Low -- °F
Precip. -- in
6:35 AM 8:46 PM
Full, 100% visible
Pressure 30.18 in
Visibility 1.5 miles
Clouds Scattered Clouds 200 ft
Dew Point 68 °F
Humidity 98%
Rainfall 0.00 in
Snow Depth Not available.
UV 0.0 out of 12
Pollen .60 out of 12
Air Quality Not available.
Flu Activity Not available.
METAR KGBD 311015Z AUTO 00000KT 1 1/2SM SCT002 19/17 A3018 RMK AO1

More Conditions Fewer Conditions

Pressure 30.18 in
Visibility 1.5 miles
Clouds Scattered Clouds 200 ft
Dew Point 68 °F
Humidity 98%
Rainfall 0.00 in
Snow Depth Not available.
UV 0.0 out of 12
Pollen .60 out of 12
Air Quality Not available.
Flu Activity Not available.
METAR KGBD 311015Z AUTO 00000KT 1 1/2SM SCT002 19/17 A3018 RMK AO1

More Conditions Fewer Conditions

10-Day Weather Forecast

×

Almanac

Astronomy

Jul. 31, 2015 Rise Set
Actual Time
Civil Twilight
Nautical Twilight
Astronomical Twilight
Moon
Length of Visible Light
Length of Day
Tomorrow will be .
, % of the Moon is Illuminated

Today's Extremes

State Highs State Lows

Community

WunderPhotos

Upload Photos

1,842,640 photos uploaded!

WunderBlogs® & News

Nearby

Air Quality

  Air Quality AQ Index Pollutant
Not available.

Snow Depth

Station Depth Elevation

Earthquake Activity

City Distance Mag. Time & Date
Minimum magnitude displayed is 2.5.

Coastal Water Temperatures

Place Temperature

Stations

Nearby Weather Stations

Station Location Temp. Windchill Dew Point Humidity Wind Precip. Elev Updated Type